sensor_id;sensor_type;location;lat;lon;timestamp;P1;durP1;ratioP1;P2;durP2;ratioP2
57465;SDS011;67033;44.984;20.068;2023-04-15T00:00:13;10.77;;;9.02;;
57465;SDS011;67033;44.984;20.068;2023-04-15T00:02:39;12.70;;;10.20;;
57465;SDS011;67033;44.984;20.068;2023-04-15T00:05:06;16.48;;;11.90;;
57465;SDS011;67033;44.984;20.068;2023-04-15T00:07:32;24.08;;;14.13;;
57465;SDS011;67033;44.984;20.068;2023-04-15T00:09:58;16.33;;;11.20;;
57465;SDS011;67033;44.984;20.068;2023-04-15T00:12:24;19.27;;;13.48;;
57465;SDS011;67033;44.984;20.068;2023-04-15T00:14:51;16.92;;;13.18;;
57465;SDS011;67033;44.984;20.068;2023-04-15T00:17:17;17.20;;;12.13;;
57465;SDS011;67033;44.984;20.068;2023-04-15T00:19:43;17.52;;;12.45;;
57465;SDS011;67033;44.984;20.068;2023-04-15T00:22:10;14.93;;;11.20;;
57465;SDS011;67033;44.984;20.068;2023-04-15T00:24:36;15.95;;;11.07;;
57465;SDS011;67033;44.984;20.068;2023-04-15T00:27:02;14.10;;;11.60;;
57465;SDS011;67033;44.984;20.068;2023-04-15T00:29:28;13.40;;;10.50;;
57465;SDS011;67033;44.984;20.068;2023-04-15T00:31:55;12.40;;;10.52;;
57465;SDS011;67033;44.984;20.068;2023-04-15T00:34:23;12.95;;;10.73;;
57465;SDS011;67033;44.984;20.068;2023-04-15T00:36:49;12.55;;;10.07;;
57465;SDS011;67033;44.984;20.068;2023-04-15T00:39:16;13.38;;;10.15;;
57465;SDS011;67033;44.984;20.068;2023-04-15T00:41:42;11.93;;;9.40;;
57465;SDS011;67033;44.984;20.068;2023-04-15T00:44:09;12.90;;;9.93;;
57465;SDS011;67033;44.984;20.068;2023-04-15T00:46:35;11.60;;;10.25;;
57465;SDS011;67033;44.984;20.068;2023-04-15T00:49:03;14.13;;;10.77;;
57465;SDS011;67033;44.984;20.068;2023-04-15T00:51:30;16.63;;;12.13;;
57465;SDS011;67033;44.984;20.068;2023-04-15T00:53:58;14.65;;;11.98;;
57465;SDS011;67033;44.984;20.068;2023-04-15T00:56:24;14.63;;;11.68;;
57465;SDS011;67033;44.984;20.068;2023-04-15T00:58:52;14.25;;;12.02;;
57465;SDS011;67033;44.984;20.068;2023-04-15T01:01:19;13.50;;;11.30;;
57465;SDS011;67033;44.984;20.068;2023-04-15T01:03:47;16.13;;;11.23;;
57465;SDS011;67033;44.984;20.068;2023-04-15T01:06:14;12.93;;;11.50;;
57465;SDS011;67033;44.984;20.068;2023-04-15T01:08:41;14.05;;;11.57;;
57465;SDS011;67033;44.984;20.068;2023-04-15T01:11:07;13.23;;;11.30;;
57465;SDS011;67033;44.984;20.068;2023-04-15T01:13:34;14.38;;;12.10;;
57465;SDS011;67033;44.984;20.068;2023-04-15T01:16:01;14.25;;;11.77;;
57465;SDS011;67033;44.984;20.068;2023-04-15T01:18:27;11.25;;;10.05;;
57465;SDS011;67033;44.984;20.068;2023-04-15T01:20:54;13.93;;;10.32;;
57465;SDS011;67033;44.984;20.068;2023-04-15T01:23:20;12.88;;;10.90;;
57465;SDS011;67033;44.984;20.068;2023-04-15T01:25:49;15.43;;;10.40;;
57465;SDS011;67033;44.984;20.068;2023-04-15T01:28:17;14.93;;;11.48;;
57465;SDS011;67033;44.984;20.068;2023-04-15T01:30:44;14.80;;;11.85;;
57465;SDS011;67033;44.984;20.068;2023-04-15T01:33:10;16.10;;;11.30;;
57465;SDS011;67033;44.984;20.068;2023-04-15T01:35:36;13.88;;;11.60;;
57465;SDS011;67033;44.984;20.068;2023-04-15T01:38:04;14.13;;;11.45;;
57465;SDS011;67033;44.984;20.068;2023-04-15T01:40:31;15.23;;;12.57;;
57465;SDS011;67033;44.984;20.068;2023-04-15T01:42:58;18.50;;;12.32;;
57465;SDS011;67033;44.984;20.068;2023-04-15T01:45:24;17.40;;;12.82;;
57465;SDS011;67033;44.984;20.068;2023-04-15T01:47:50;15.95;;;12.02;;
57465;SDS011;67033;44.984;20.068;2023-04-15T01:50:16;15.40;;;12.07;;
57465;SDS011;67033;44.984;20.068;2023-04-15T01:52:43;14.98;;;10.93;;
57465;SDS011;67033;44.984;20.068;2023-04-15T01:55:09;15.45;;;12.38;;
57465;SDS011;67033;44.984;20.068;2023-04-15T01:57:35;18.05;;;12.95;;
57465;SDS011;67033;44.984;20.068;2023-04-15T02:00:01;14.75;;;11.80;;
57465;SDS011;67033;44.984;20.068;2023-04-15T02:02:28;14.82;;;12.05;;
57465;SDS011;67033;44.984;20.068;2023-04-15T02:04:53;17.48;;;13.88;;
57465;SDS011;67033;44.984;20.068;2023-04-15T02:07:19;17.00;;;13.27;;
57465;SDS011;67033;44.984;20.068;2023-04-15T02:09:46;15.00;;;12.27;;
57465;SDS011;67033;44.984;20.068;2023-04-15T02:12:11;17.75;;;12.75;;
57465;SDS011;67033;44.984;20.068;2023-04-15T02:14:38;16.58;;;12.68;;
57465;SDS011;67033;44.984;20.068;2023-04-15T02:17:03;13.00;;;10.68;;
57465;SDS011;67033;44.984;20.068;2023-04-15T02:19:33;16.38;;;11.70;;
57465;SDS011;67033;44.984;20.068;2023-04-15T02:21:59;13.98;;;11.60;;
57465;SDS011;67033;44.984;20.068;2023-04-15T02:24:26;14.82;;;11.88;;
57465;SDS011;67033;44.984;20.068;2023-04-15T02:26:53;15.55;;;12.18;;
57465;SDS011;67033;44.984;20.068;2023-04-15T02:29:19;14.77;;;12.48;;
57465;SDS011;67033;44.984;20.068;2023-04-15T02:31:44;16.13;;;12.20;;
57465;SDS011;67033;44.984;20.068;2023-04-15T02:34:12;15.77;;;12.38;;
57465;SDS011;67033;44.984;20.068;2023-04-15T02:36:38;14.15;;;11.93;;
57465;SDS011;67033;44.984;20.068;2023-04-15T02:39:04;18.75;;;13.30;;
57465;SDS011;67033;44.984;20.068;2023-04-15T02:41:31;17.95;;;12.75;;
57465;SDS011;67033;44.984;20.068;2023-04-15T02:43:57;16.80;;;13.50;;
57465;SDS011;67033;44.984;20.068;2023-04-15T02:46:23;16.73;;;13.18;;
57465;SDS011;67033;44.984;20.068;2023-04-15T02:48:49;17.27;;;12.93;;
57465;SDS011;67033;44.984;20.068;2023-04-15T02:51:16;19.92;;;14.52;;
57465;SDS011;67033;44.984;20.068;2023-04-15T02:53:47;16.15;;;13.55;;
57465;SDS011;67033;44.984;20.068;2023-04-15T02:56:13;18.05;;;14.68;;
57465;SDS011;67033;44.984;20.068;2023-04-15T02:58:42;16.25;;;13.20;;
57465;SDS011;67033;44.984;20.068;2023-04-15T03:01:14;17.27;;;14.05;;
57465;SDS011;67033;44.984;20.068;2023-04-15T03:03:42;22.30;;;15.93;;
57465;SDS011;67033;44.984;20.068;2023-04-15T03:06:15;18.67;;;14.95;;
57465;SDS011;67033;44.984;20.068;2023-04-15T03:08:41;18.40;;;15.05;;
57465;SDS011;67033;44.984;20.068;2023-04-15T03:11:08;18.83;;;15.52;;
57465;SDS011;67033;44.984;20.068;2023-04-15T03:13:33;15.80;;;13.05;;
57465;SDS011;67033;44.984;20.068;2023-04-15T03:15:59;17.25;;;12.88;;
57465;SDS011;67033;44.984;20.068;2023-04-15T03:18:25;17.70;;;12.90;;
57465;SDS011;67033;44.984;20.068;2023-04-15T03:20:52;19.45;;;15.38;;
57465;SDS011;67033;44.984;20.068;2023-04-15T03:23:17;18.45;;;14.68;;
57465;SDS011;67033;44.984;20.068;2023-04-15T03:25:44;27.55;;;17.35;;
57465;SDS011;67033;44.984;20.068;2023-04-15T03:28:10;28.40;;;17.38;;
57465;SDS011;67033;44.984;20.068;2023-04-15T03:30:36;24.10;;;18.33;;
57465;SDS011;67033;44.984;20.068;2023-04-15T03:33:02;25.80;;;18.17;;
57465;SDS011;67033;44.984;20.068;2023-04-15T03:35:28;31.80;;;18.08;;
57465;SDS011;67033;44.984;20.068;2023-04-15T03:37:54;24.05;;;15.20;;
57465;SDS011;67033;44.984;20.068;2023-04-15T03:40:20;20.90;;;14.00;;
57465;SDS011;67033;44.984;20.068;2023-04-15T03:42:46;22.52;;;16.08;;
57465;SDS011;67033;44.984;20.068;2023-04-15T03:45:12;21.80;;;14.90;;
57465;SDS011;67033;44.984;20.068;2023-04-15T03:47:38;23.27;;;15.23;;
57465;SDS011;67033;44.984;20.068;2023-04-15T03:50:04;24.40;;;15.63;;
57465;SDS011;67033;44.984;20.068;2023-04-15T03:52:31;22.85;;;15.05;;
57465;SDS011;67033;44.984;20.068;2023-04-15T03:54:57;23.02;;;15.02;;
57465;SDS011;67033;44.984;20.068;2023-04-15T03:57:22;20.60;;;14.35;;
57465;SDS011;67033;44.984;20.068;2023-04-15T03:59:48;20.63;;;14.70;;
57465;SDS011;67033;44.984;20.068;2023-04-15T04:02:14;18.20;;;14.10;;
57465;SDS011;67033;44.984;20.068;2023-04-15T04:04:40;22.30;;;14.45;;
57465;SDS011;67033;44.984;20.068;2023-04-15T04:07:06;21.83;;;15.40;;
57465;SDS011;67033;44.984;20.068;2023-04-15T04:09:31;28.73;;;15.85;;
57465;SDS011;67033;44.984;20.068;2023-04-15T04:11:58;27.35;;;18.13;;
57465;SDS011;67033;44.984;20.068;2023-04-15T04:14:24;22.67;;;16.02;;
57465;SDS011;67033;44.984;20.068;2023-04-15T04:19:20;24.85;;;14.75;;
57465;SDS011;67033;44.984;20.068;2023-04-15T04:21:51;31.33;;;18.63;;
57465;SDS011;67033;44.984;20.068;2023-04-15T04:24:20;27.45;;;19.00;;
57465;SDS011;67033;44.984;20.068;2023-04-15T04:26:46;28.55;;;19.80;;
57465;SDS011;67033;44.984;20.068;2023-04-15T04:29:12;30.00;;;20.17;;
57465;SDS011;67033;44.984;20.068;2023-04-15T04:31:38;30.58;;;20.98;;
57465;SDS011;67033;44.984;20.068;2023-04-15T04:34:04;55.47;;;27.75;;
57465;SDS011;67033;44.984;20.068;2023-04-15T04:36:30;45.70;;;24.98;;
57465;SDS011;67033;44.984;20.068;2023-04-15T04:38:56;42.85;;;24.42;;
57465;SDS011;67033;44.984;20.068;2023-04-15T04:41:21;75.40;;;34.15;;
57465;SDS011;67033;44.984;20.068;2023-04-15T04:43:47;55.75;;;34.13;;
57465;SDS011;67033;44.984;20.068;2023-04-15T04:46:13;60.63;;;33.53;;
57465;SDS011;67033;44.984;20.068;2023-04-15T04:48:39;42.95;;;29.67;;
57465;SDS011;67033;44.984;20.068;2023-04-15T04:51:05;52.25;;;33.03;;
57465;SDS011;67033;44.984;20.068;2023-04-15T04:53:32;32.83;;;23.95;;
57465;SDS011;67033;44.984;20.068;2023-04-15T04:55:58;29.77;;;17.92;;
57465;SDS011;67033;44.984;20.068;2023-04-15T04:58:23;31.67;;;19.92;;
57465;SDS011;67033;44.984;20.068;2023-04-15T05:00:49;29.00;;;19.55;;
57465;SDS011;67033;44.984;20.068;2023-04-15T05:03:16;24.65;;;18.40;;
57465;SDS011;67033;44.984;20.068;2023-04-15T05:05:42;38.03;;;29.42;;
57465;SDS011;67033;44.984;20.068;2023-04-15T05:08:08;57.25;;;40.88;;
57465;SDS011;67033;44.984;20.068;2023-04-15T05:10:33;38.10;;;26.02;;
57465;SDS011;67033;44.984;20.068;2023-04-15T05:13:00;50.80;;;34.30;;
57465;SDS011;67033;44.984;20.068;2023-04-15T05:15:26;33.17;;;24.17;;
57465;SDS011;67033;44.984;20.068;2023-04-15T05:17:52;32.60;;;24.15;;
57465;SDS011;67033;44.984;20.068;2023-04-15T05:20:17;19.05;;;13.73;;
57465;SDS011;67033;44.984;20.068;2023-04-15T05:22:44;22.10;;;13.82;;
57465;SDS011;67033;44.984;20.068;2023-04-15T05:25:09;23.25;;;14.05;;
57465;SDS011;67033;44.984;20.068;2023-04-15T05:27:36;16.63;;;11.90;;
57465;SDS011;67033;44.984;20.068;2023-04-15T05:30:02;13.80;;;10.25;;
57465;SDS011;67033;44.984;20.068;2023-04-15T05:32:28;17.98;;;10.80;;
57465;SDS011;67033;44.984;20.068;2023-04-15T05:34:54;17.05;;;10.63;;
57465;SDS011;67033;44.984;20.068;2023-04-15T05:37:20;15.70;;;10.45;;
57465;SDS011;67033;44.984;20.068;2023-04-15T05:39:46;12.05;;;8.85;;
57465;SDS011;67033;44.984;20.068;2023-04-15T05:42:12;10.68;;;8.55;;
57465;SDS011;67033;44.984;20.068;2023-04-15T05:44:38;12.07;;;8.95;;
57465;SDS011;67033;44.984;20.068;2023-04-15T05:47:04;14.93;;;8.73;;
57465;SDS011;67033;44.984;20.068;2023-04-15T05:49:31;11.88;;;8.43;;
57465;SDS011;67033;44.984;20.068;2023-04-15T05:51:57;15.63;;;9.63;;
57465;SDS011;67033;44.984;20.068;2023-04-15T05:54:23;12.63;;;8.65;;
57465;SDS011;67033;44.984;20.068;2023-04-15T05:56:50;12.40;;;8.57;;
57465;SDS011;67033;44.984;20.068;2023-04-15T05:59:16;9.98;;;7.30;;
57465;SDS011;67033;44.984;20.068;2023-04-15T06:01:42;12.57;;;6.85;;
57465;SDS011;67033;44.984;20.068;2023-04-15T06:04:08;9.25;;;6.13;;
57465;SDS011;67033;44.984;20.068;2023-04-15T06:06:33;9.13;;;6.28;;
57465;SDS011;67033;44.984;20.068;2023-04-15T06:08:59;11.13;;;6.43;;
57465;SDS011;67033;44.984;20.068;2023-04-15T06:11:25;10.07;;;5.50;;
57465;SDS011;67033;44.984;20.068;2023-04-15T06:13:51;9.52;;;5.78;;
57465;SDS011;67033;44.984;20.068;2023-04-15T06:16:17;6.78;;;4.60;;
57465;SDS011;67033;44.984;20.068;2023-04-15T06:18:43;6.75;;;4.45;;
57465;SDS011;67033;44.984;20.068;2023-04-15T06:21:09;8.35;;;4.35;;
57465;SDS011;67033;44.984;20.068;2023-04-15T06:23:35;8.10;;;3.92;;
57465;SDS011;67033;44.984;20.068;2023-04-15T06:26:01;6.88;;;3.28;;
57465;SDS011;67033;44.984;20.068;2023-04-15T06:28:27;4.57;;;2.70;;
57465;SDS011;67033;44.984;20.068;2023-04-15T06:30:53;8.27;;;3.05;;
57465;SDS011;67033;44.984;20.068;2023-04-15T06:33:20;3.90;;;2.65;;
57465;SDS011;67033;44.984;20.068;2023-04-15T06:35:46;4.82;;;2.80;;
57465;SDS011;67033;44.984;20.068;2023-04-15T06:38:13;6.43;;;2.35;;
57465;SDS011;67033;44.984;20.068;2023-04-15T06:40:40;5.32;;;2.83;;
57465;SDS011;67033;44.984;20.068;2023-04-15T06:43:06;5.57;;;2.20;;
57465;SDS011;67033;44.984;20.068;2023-04-15T06:45:33;5.05;;;2.40;;
57465;SDS011;67033;44.984;20.068;2023-04-15T06:47:59;6.68;;;2.50;;
57465;SDS011;67033;44.984;20.068;2023-04-15T06:50:25;7.00;;;2.10;;
57465;SDS011;67033;44.984;20.068;2023-04-15T06:52:54;6.65;;;1.80;;
57465;SDS011;67033;44.984;20.068;2023-04-15T06:55:21;4.03;;;1.73;;
57465;SDS011;67033;44.984;20.068;2023-04-15T06:57:47;5.32;;;1.80;;
57465;SDS011;67033;44.984;20.068;2023-04-15T07:00:13;3.08;;;1.70;;
57465;SDS011;67033;44.984;20.068;2023-04-15T07:02:39;5.85;;;1.90;;
57465;SDS011;67033;44.984;20.068;2023-04-15T07:05:05;7.82;;;1.70;;
57465;SDS011;67033;44.984;20.068;2023-04-15T07:07:31;4.05;;;1.40;;
57465;SDS011;67033;44.984;20.068;2023-04-15T07:09:57;3.83;;;1.48;;
57465;SDS011;67033;44.984;20.068;2023-04-15T07:12:24;7.15;;;1.30;;
57465;SDS011;67033;44.984;20.068;2023-04-15T07:14:50;5.15;;;1.48;;
57465;SDS011;67033;44.984;20.068;2023-04-15T07:17:16;2.95;;;1.27;;
57465;SDS011;67033;44.984;20.068;2023-04-15T07:19:42;7.68;;;2.17;;
57465;SDS011;67033;44.984;20.068;2023-04-15T07:22:07;4.72;;;2.22;;
57465;SDS011;67033;44.984;20.068;2023-04-15T07:24:34;8.57;;;2.50;;
57465;SDS011;67033;44.984;20.068;2023-04-15T07:27:00;6.10;;;2.30;;
57465;SDS011;67033;44.984;20.068;2023-04-15T07:29:26;2.90;;;1.73;;
57465;SDS011;67033;44.984;20.068;2023-04-15T07:31:52;6.18;;;1.58;;
57465;SDS011;67033;44.984;20.068;2023-04-15T07:34:20;3.95;;;1.83;;
57465;SDS011;67033;44.984;20.068;2023-04-15T07:36:46;3.55;;;1.90;;
57465;SDS011;67033;44.984;20.068;2023-04-15T07:39:18;4.90;;;2.80;;
57465;SDS011;67033;44.984;20.068;2023-04-15T07:41:44;5.53;;;2.05;;
57465;SDS011;67033;44.984;20.068;2023-04-15T07:44:10;4.30;;;1.95;;
57465;SDS011;67033;44.984;20.068;2023-04-15T07:46:36;3.40;;;1.55;;
57465;SDS011;67033;44.984;20.068;2023-04-15T07:49:02;3.20;;;1.85;;
57465;SDS011;67033;44.984;20.068;2023-04-15T07:51:28;3.20;;;1.63;;
57465;SDS011;67033;44.984;20.068;2023-04-15T07:53:54;2.35;;;1.63;;
57465;SDS011;67033;44.984;20.068;2023-04-15T07:56:21;3.20;;;1.55;;
57465;SDS011;67033;44.984;20.068;2023-04-15T07:58:47;4.60;;;1.40;;
57465;SDS011;67033;44.984;20.068;2023-04-15T08:01:13;5.25;;;1.45;;
57465;SDS011;67033;44.984;20.068;2023-04-15T08:03:39;5.50;;;1.40;;
57465;SDS011;67033;44.984;20.068;2023-04-15T08:06:05;7.60;;;1.50;;
57465;SDS011;67033;44.984;20.068;2023-04-15T08:08:31;1.45;;;1.00;;
57465;SDS011;67033;44.984;20.068;2023-04-15T08:10:57;5.13;;;1.30;;
57465;SDS011;67033;44.984;20.068;2023-04-15T08:13:22;3.03;;;1.10;;
57465;SDS011;67033;44.984;20.068;2023-04-15T08:15:52;2.90;;;1.20;;
57465;SDS011;67033;44.984;20.068;2023-04-15T08:18:36;3.47;;;1.08;;
57465;SDS011;67033;44.984;20.068;2023-04-15T08:21:02;2.50;;;0.98;;
57465;SDS011;67033;44.984;20.068;2023-04-15T08:23:28;4.45;;;1.45;;
57465;SDS011;67033;44.984;20.068;2023-04-15T08:25:54;3.88;;;1.30;;
57465;SDS011;67033;44.984;20.068;2023-04-15T08:28:20;2.03;;;1.20;;
57465;SDS011;67033;44.984;20.068;2023-04-15T08:30:46;4.20;;;1.70;;
57465;SDS011;67033;44.984;20.068;2023-04-15T08:33:12;3.85;;;1.27;;
57465;SDS011;67033;44.984;20.068;2023-04-15T08:35:38;2.35;;;1.17;;
57465;SDS011;67033;44.984;20.068;2023-04-15T08:38:04;3.50;;;1.17;;
57465;SDS011;67033;44.984;20.068;2023-04-15T08:40:40;2.88;;;1.25;;
57465;SDS011;67033;44.984;20.068;2023-04-15T08:43:22;4.32;;;1.13;;
57465;SDS011;67033;44.984;20.068;2023-04-15T08:45:52;6.53;;;1.50;;
57465;SDS011;67033;44.984;20.068;2023-04-15T08:48:19;2.58;;;1.05;;
57465;SDS011;67033;44.984;20.068;2023-04-15T08:50:48;3.38;;;1.30;;
57465;SDS011;67033;44.984;20.068;2023-04-15T08:53:15;4.03;;;1.05;;
57465;SDS011;67033;44.984;20.068;2023-04-15T08:55:43;3.17;;;1.40;;
57465;SDS011;67033;44.984;20.068;2023-04-15T08:58:10;6.75;;;2.25;;
57465;SDS011;67033;44.984;20.068;2023-04-15T09:00:37;3.30;;;0.50;;
57465;SDS011;67033;44.984;20.068;2023-04-15T09:03:04;2.78;;;0.70;;
57465;SDS011;67033;44.984;20.068;2023-04-15T09:05:31;2.40;;;0.88;;
57465;SDS011;67033;44.984;20.068;2023-04-15T09:07:58;8.63;;;0.60;;
57465;SDS011;67033;44.984;20.068;2023-04-15T09:10:24;1.38;;;0.55;;
57465;SDS011;67033;44.984;20.068;2023-04-15T09:12:50;0.95;;;0.50;;
57465;SDS011;67033;44.984;20.068;2023-04-15T09:15:16;1.15;;;0.50;;
57465;SDS011;67033;44.984;20.068;2023-04-15T09:17:43;1.58;;;0.68;;
57465;SDS011;67033;44.984;20.068;2023-04-15T09:20:11;10.57;;;0.90;;
57465;SDS011;67033;44.984;20.068;2023-04-15T09:22:39;1.30;;;0.55;;
57465;SDS011;67033;44.984;20.068;2023-04-15T09:27:50;2.15;;;1.13;;
57465;SDS011;67033;44.984;20.068;2023-04-15T09:30:17;1.30;;;0.60;;
57465;SDS011;67033;44.984;20.068;2023-04-15T09:32:52;2.15;;;0.70;;
57465;SDS011;67033;44.984;20.068;2023-04-15T09:35:23;1.67;;;0.50;;
57465;SDS011;67033;44.984;20.068;2023-04-15T09:37:51;1.17;;;0.70;;
57465;SDS011;67033;44.984;20.068;2023-04-15T09:40:35;0.73;;;0.65;;
57465;SDS011;67033;44.984;20.068;2023-04-15T09:43:07;1.90;;;0.63;;
57465;SDS011;67033;44.984;20.068;2023-04-15T09:45:36;4.90;;;1.00;;
57465;SDS011;67033;44.984;20.068;2023-04-15T09:48:17;3.05;;;0.70;;
57465;SDS011;67033;44.984;20.068;2023-04-15T09:50:43;1.77;;;1.10;;
57465;SDS011;67033;44.984;20.068;2023-04-15T09:53:09;2.20;;;0.88;;
57465;SDS011;67033;44.984;20.068;2023-04-15T09:55:36;2.53;;;0.77;;
57465;SDS011;67033;44.984;20.068;2023-04-15T09:58:07;4.78;;;0.73;;
57465;SDS011;67033;44.984;20.068;2023-04-15T10:00:34;1.35;;;0.60;;
57465;SDS011;67033;44.984;20.068;2023-04-15T10:03:02;2.55;;;0.88;;
57465;SDS011;67033;44.984;20.068;2023-04-15T10:05:29;1.42;;;0.60;;
57465;SDS011;67033;44.984;20.068;2023-04-15T10:07:56;1.25;;;1.15;;
57465;SDS011;67033;44.984;20.068;2023-04-15T10:10:23;0.75;;;0.70;;
57465;SDS011;67033;44.984;20.068;2023-04-15T10:12:48;1.27;;;1.00;;
57465;SDS011;67033;44.984;20.068;2023-04-15T10:15:18;1.45;;;0.50;;
57465;SDS011;67033;44.984;20.068;2023-04-15T10:17:45;1.38;;;0.60;;
57465;SDS011;67033;44.984;20.068;2023-04-15T10:20:15;1.85;;;0.80;;
57465;SDS011;67033;44.984;20.068;2023-04-15T10:22:43;1.27;;;0.38;;
57465;SDS011;67033;44.984;20.068;2023-04-15T10:25:11;1.35;;;0.77;;
57465;SDS011;67033;44.984;20.068;2023-04-15T10:27:38;2.20;;;0.77;;
57465;SDS011;67033;44.984;20.068;2023-04-15T10:30:06;0.75;;;0.60;;
57465;SDS011;67033;44.984;20.068;2023-04-15T10:32:33;2.28;;;0.60;;
57465;SDS011;67033;44.984;20.068;2023-04-15T10:35:00;2.92;;;0.68;;
57465;SDS011;67033;44.984;20.068;2023-04-15T10:37:37;7.05;;;0.70;;
57465;SDS011;67033;44.984;20.068;2023-04-15T10:42:49;1.35;;;0.50;;
57465;SDS011;67033;44.984;20.068;2023-04-15T10:45:15;2.88;;;0.70;;
57465;SDS011;67033;44.984;20.068;2023-04-15T10:47:42;2.22;;;0.68;;
57465;SDS011;67033;44.984;20.068;2023-04-15T10:50:08;3.17;;;0.70;;
57465;SDS011;67033;44.984;20.068;2023-04-15T10:52:36;2.10;;;0.70;;
57465;SDS011;67033;44.984;20.068;2023-04-15T10:55:18;3.88;;;0.88;;
57465;SDS011;67033;44.984;20.068;2023-04-15T10:57:46;15.52;;;2.45;;
57465;SDS011;67033;44.984;20.068;2023-04-15T11:00:17;10.85;;;6.97;;
57465;SDS011;67033;44.984;20.068;2023-04-15T11:02:57;3.78;;;1.40;;
57465;SDS011;67033;44.984;20.068;2023-04-15T11:08:04;1.27;;;0.52;;
57465;SDS011;67033;44.984;20.068;2023-04-15T11:12:59;3.08;;;1.08;;
57465;SDS011;67033;44.984;20.068;2023-04-15T11:15:33;3.42;;;1.48;;
57465;SDS011;67033;44.984;20.068;2023-04-15T11:18:09;4.35;;;0.95;;
57465;SDS011;67033;44.984;20.068;2023-04-15T11:20:36;2.83;;;0.65;;
57465;SDS011;67033;44.984;20.068;2023-04-15T11:23:03;4.85;;;1.10;;
57465;SDS011;67033;44.984;20.068;2023-04-15T11:25:33;5.07;;;0.70;;
57465;SDS011;67033;44.984;20.068;2023-04-15T11:28:02;2.25;;;0.60;;
57465;SDS011;67033;44.984;20.068;2023-04-15T11:30:35;4.75;;;1.90;;
57465;SDS011;67033;44.984;20.068;2023-04-15T11:33:03;5.30;;;1.00;;
57465;SDS011;67033;44.984;20.068;2023-04-15T11:35:30;3.60;;;1.10;;
57465;SDS011;67033;44.984;20.068;2023-04-15T11:37:56;4.43;;;0.93;;
57465;SDS011;67033;44.984;20.068;2023-04-15T11:40:26;0.50;;;0.50;;
57465;SDS011;67033;44.984;20.068;2023-04-15T11:43:16;3.72;;;1.23;;
57465;SDS011;67033;44.984;20.068;2023-04-15T11:48:24;2.95;;;1.08;;
57465;SDS011;67033;44.984;20.068;2023-04-15T11:50:57;2.08;;;0.90;;
57465;SDS011;67033;44.984;20.068;2023-04-15T11:53:38;1.30;;;0.70;;
57465;SDS011;67033;44.984;20.068;2023-04-15T11:56:08;0.85;;;0.77;;
57465;SDS011;67033;44.984;20.068;2023-04-15T11:58:36;1.17;;;0.50;;
57465;SDS011;67033;44.984;20.068;2023-04-15T12:01:02;5.00;;;0.90;;
57465;SDS011;67033;44.984;20.068;2023-04-15T12:03:39;2.88;;;0.95;;
57465;SDS011;67033;44.984;20.068;2023-04-15T12:08:50;3.72;;;0.60;;
57465;SDS011;67033;44.984;20.068;2023-04-15T12:11:19;1.73;;;0.93;;
57465;SDS011;67033;44.984;20.068;2023-04-15T12:14:07;6.53;;;0.80;;
57465;SDS011;67033;44.984;20.068;2023-04-15T12:16:36;2.05;;;0.73;;
57465;SDS011;67033;44.984;20.068;2023-04-15T12:19:11;2.03;;;0.93;;
57465;SDS011;67033;44.984;20.068;2023-04-15T12:21:39;0.40;;;0.40;;
57465;SDS011;67033;44.984;20.068;2023-04-15T12:24:08;2.05;;;0.52;;
57465;SDS011;67033;44.984;20.068;2023-04-15T12:26:36;14.05;;;1.10;;
57465;SDS011;67033;44.984;20.068;2023-04-15T12:29:10;1.50;;;0.60;;
57465;SDS011;67033;44.984;20.068;2023-04-15T12:31:47;1.15;;;0.68;;
57465;SDS011;67033;44.984;20.068;2023-04-15T12:34:34;2.67;;;0.90;;
57465;SDS011;67033;44.984;20.068;2023-04-15T12:37:06;2.78;;;0.75;;
57465;SDS011;67033;44.984;20.068;2023-04-15T12:39:37;3.40;;;0.93;;
57465;SDS011;67033;44.984;20.068;2023-04-15T12:42:04;3.77;;;0.90;;
57465;SDS011;67033;44.984;20.068;2023-04-15T12:44:31;3.60;;;1.00;;
57465;SDS011;67033;44.984;20.068;2023-04-15T12:47:00;5.55;;;1.63;;
57465;SDS011;67033;44.984;20.068;2023-04-15T12:49:26;2.35;;;0.90;;
57465;SDS011;67033;44.984;20.068;2023-04-15T12:51:54;2.33;;;0.70;;
57465;SDS011;67033;44.984;20.068;2023-04-15T12:54:21;0.93;;;0.65;;
57465;SDS011;67033;44.984;20.068;2023-04-15T12:56:48;1.45;;;0.60;;
57465;SDS011;67033;44.984;20.068;2023-04-15T12:59:15;3.20;;;0.88;;
57465;SDS011;67033;44.984;20.068;2023-04-15T13:01:45;1.35;;;0.52;;
57465;SDS011;67033;44.984;20.068;2023-04-15T13:04:13;5.00;;;0.70;;
57465;SDS011;67033;44.984;20.068;2023-04-15T13:06:39;1.48;;;0.65;;
57465;SDS011;67033;44.984;20.068;2023-04-15T13:09:05;3.05;;;0.70;;
57465;SDS011;67033;44.984;20.068;2023-04-15T13:11:31;0.82;;;0.70;;
57465;SDS011;67033;44.984;20.068;2023-04-15T13:16:27;1.33;;;0.60;;
57465;SDS011;67033;44.984;20.068;2023-04-15T13:18:53;1.05;;;0.60;;
57465;SDS011;67033;44.984;20.068;2023-04-15T13:21:19;2.80;;;0.50;;
57465;SDS011;67033;44.984;20.068;2023-04-15T13:23:45;4.22;;;0.85;;
57465;SDS011;67033;44.984;20.068;2023-04-15T13:26:11;3.47;;;0.82;;
57465;SDS011;67033;44.984;20.068;2023-04-15T13:28:37;0.82;;;0.60;;
57465;SDS011;67033;44.984;20.068;2023-04-15T13:31:03;0.82;;;0.52;;
57465;SDS011;67033;44.984;20.068;2023-04-15T13:33:30;1.30;;;0.68;;
57465;SDS011;67033;44.984;20.068;2023-04-15T13:35:56;1.17;;;0.60;;
57465;SDS011;67033;44.984;20.068;2023-04-15T13:38:22;2.10;;;0.85;;
57465;SDS011;67033;44.984;20.068;2023-04-15T13:40:49;1.48;;;0.82;;
57465;SDS011;67033;44.984;20.068;2023-04-15T13:43:15;2.40;;;0.60;;
57465;SDS011;67033;44.984;20.068;2023-04-15T13:45:41;1.55;;;0.70;;
57465;SDS011;67033;44.984;20.068;2023-04-15T13:48:08;2.78;;;0.60;;
57465;SDS011;67033;44.984;20.068;2023-04-15T13:50:34;23.27;;;2.70;;
57465;SDS011;67033;44.984;20.068;2023-04-15T13:53:00;7.13;;;4.70;;
57465;SDS011;67033;44.984;20.068;2023-04-15T13:55:26;0.85;;;0.60;;
57465;SDS011;67033;44.984;20.068;2023-04-15T13:57:52;3.05;;;0.70;;
57465;SDS011;67033;44.984;20.068;2023-04-15T14:00:18;1.77;;;0.55;;
57465;SDS011;67033;44.984;20.068;2023-04-15T14:02:44;0.90;;;0.60;;
57465;SDS011;67033;44.984;20.068;2023-04-15T14:05:10;1.90;;;0.65;;
57465;SDS011;67033;44.984;20.068;2023-04-15T14:07:36;4.13;;;0.88;;
57465;SDS011;67033;44.984;20.068;2023-04-15T14:10:02;2.25;;;1.00;;
57465;SDS011;67033;44.984;20.068;2023-04-15T14:12:28;3.25;;;1.02;;
57465;SDS011;67033;44.984;20.068;2023-04-15T14:14:54;1.85;;;0.70;;
57465;SDS011;67033;44.984;20.068;2023-04-15T14:17:20;2.65;;;1.17;;
57465;SDS011;67033;44.984;20.068;2023-04-15T14:19:46;1.48;;;1.00;;
57465;SDS011;67033;44.984;20.068;2023-04-15T14:22:12;2.10;;;1.70;;
57465;SDS011;67033;44.984;20.068;2023-04-15T14:24:38;3.03;;;0.73;;
57465;SDS011;67033;44.984;20.068;2023-04-15T14:27:04;6.68;;;0.85;;
57465;SDS011;67033;44.984;20.068;2023-04-15T14:29:32;2.65;;;0.68;;
57465;SDS011;67033;44.984;20.068;2023-04-15T14:31:58;0.90;;;0.60;;
57465;SDS011;67033;44.984;20.068;2023-04-15T14:34:25;1.40;;;0.65;;
57465;SDS011;67033;44.984;20.068;2023-04-15T14:36:51;3.90;;;2.28;;
57465;SDS011;67033;44.984;20.068;2023-04-15T14:39:19;10.67;;;1.77;;
57465;SDS011;67033;44.984;20.068;2023-04-15T14:41:45;3.80;;;1.17;;
57465;SDS011;67033;44.984;20.068;2023-04-15T14:44:11;6.40;;;1.20;;